Time;durP1;ratioP1;P1;durP2;ratioP2;P2;SDS_P1;SDS_P2;PMS_P1;PMS_P2;Temp;Humidity;BMP_temperature;BMP_pressure;BME280_temperature;BME280_humidity;BME280_pressure;Samples;Min_cycle;Max_cycle;Signal;HPM_P1;HPM_P2
2022/10/06 00:01:27;;;;;;;0.60;0.60;;;;;;;;;;5087419;28;20024;-40
2022/10/06 00:03:53;;;;;;;0.57;0.40;;;;;;;;;;5085805;28;20035;-39
2022/10/06 00:06:19;;;;;;;0.52;0.52;;;;;;;;;;5087838;28;20051;-39
2022/10/06 00:08:46;;;;;;;1.33;0.50;;;;;;;;;;5090208;28;20032;-39
2022/10/06 00:11:13;;;;;;;1.17;0.85;;;;;;;;;;5090609;28;20032;-39
2022/10/06 00:13:40;;;;;;;0.70;0.60;;;;;;;;;;5090019;28;20023;-39
2022/10/06 00:16:15;;;;;;;0.85;0.50;;;;;;;;;;5090354;28;20031;-39
2022/10/06 00:18:42;;;;;;;1.27;0.50;;;;;;;;;;5088312;28;20047;-39
2022/10/06 00:21:08;;;;;;;0.82;0.60;;;;;;;;;;5090152;28;20035;-39
2022/10/06 00:23:34;;;;;;;1.83;0.60;;;;;;;;;;5089788;28;20033;-39
2022/10/06 00:26:00;;;;;;;0.70;0.40;;;;;;;;;;5089208;28;20063;-39
2022/10/06 00:28:26;;;;;;;0.55;0.50;;;;;;;;;;5089797;28;20039;-39
2022/10/06 00:30:54;;;;;;;0.68;0.60;;;;;;;;;;5089795;28;20506;-40
2022/10/06 00:33:22;;;;;;;1.17;0.60;;;;;;;;;;5089651;28;20020;-39
2022/10/06 00:35:55;;;;;;;0.82;0.50;;;;;;;;;;5089538;28;20507;-39
2022/10/06 00:38:21;;;;;;;2.05;0.60;;;;;;;;;;5089041;28;20103;-39
2022/10/06 00:40:49;;;;;;;0.93;0.60;;;;;;;;;;5087422;28;20121;-39
2022/10/06 00:43:34;;;;;;;1.00;0.70;;;;;;;;;;5089629;28;20020;-39
2022/10/06 00:46:01;;;;;;;0.93;0.60;;;;;;;;;;5089921;28;20479;-39
2022/10/06 00:48:27;;;;;;;0.88;0.63;;;;;;;;;;5088627;28;20069;-40
2022/10/06 00:50:56;;;;;;;2.08;0.93;;;;;;;;;;5089437;28;20110;-40
2022/10/06 00:53:23;;;;;;;0.73;0.68;;;;;;;;;;5089465;28;20534;-39
2022/10/06 00:55:50;;;;;;;0.50;0.50;;;;;;;;;;5089185;28;20032;-39
2022/10/06 00:58:16;;;;;;;0.80;0.50;;;;;;;;;;5089386;28;20487;-39
2022/10/06 01:00:43;;;;;;;1.10;0.60;;;;;;;;;;5089218;28;20027;-39
2022/10/06 01:03:12;;;;;;;0.50;0.50;;;;;;;;;;5088440;28;20095;-39
2022/10/06 01:05:42;;;;;;;1.25;0.63;;;;;;;;;;5088331;28;20032;-39
2022/10/06 01:08:09;;;;;;;0.70;0.70;;;;;;;;;;5089211;28;20491;-39
2022/10/06 01:10:35;;;;;;;1.42;0.57;;;;;;;;;;5089035;28;20110;-39
2022/10/06 01:13:01;;;;;;;1.10;0.63;;;;;;;;;;5087760;28;20390;-40
2022/10/06 01:15:27;;;;;;;0.52;0.52;;;;;;;;;;5089028;28;20034;-39
2022/10/06 01:18:00;;;;;;;1.00;0.55;;;;;;;;;;5088487;28;20654;-40
2022/10/06 01:20:28;;;;;;;0.50;0.50;;;;;;;;;;5089141;28;20031;-39
2022/10/06 01:22:54;;;;;;;0.73;0.60;;;;;;;;;;5088722;28;20024;-39
2022/10/06 01:25:21;;;;;;;0.70;0.70;;;;;;;;;;5087611;28;20512;-39
2022/10/06 01:27:52;;;;;;;1.67;0.70;;;;;;;;;;5087836;28;20039;-39
2022/10/06 01:30:21;;;;;;;0.70;0.70;;;;;;;;;;5088877;28;20020;-39
2022/10/06 01:32:47;;;;;;;0.77;0.57;;;;;;;;;;5088189;28;20476;-39
2022/10/06 01:35:13;;;;;;;2.28;0.50;;;;;;;;;;5088605;28;20514;-40
2022/10/06 01:37:39;;;;;;;0.88;0.80;;;;;;;;;;5088398;28;20483;-39
2022/10/06 01:40:05;;;;;;;0.45;0.43;;;;;;;;;;5088074;28;20036;-39
2022/10/06 01:42:32;;;;;;;0.60;0.60;;;;;;;;;;5087427;28;20028;-39
2022/10/06 01:44:58;;;;;;;0.63;0.63;;;;;;;;;;5088808;28;20048;-39
2022/10/06 01:47:24;;;;;;;1.27;0.80;;;;;;;;;;5087095;28;20101;-40
2022/10/06 01:49:52;;;;;;;0.80;0.60;;;;;;;;;;5088123;28;20035;-39
2022/10/06 01:52:18;;;;;;;1.10;0.60;;;;;;;;;;5088597;28;20406;-39
2022/10/06 01:54:44;;;;;;;0.73;0.60;;;;;;;;;;5086536;28;20040;-40
2022/10/06 01:57:10;;;;;;;0.60;0.60;;;;;;;;;;5088482;28;20024;-39
2022/10/06 01:59:36;;;;;;;1.45;0.70;;;;;;;;;;5087883;28;20042;-39
2022/10/06 02:02:03;;;;;;;1.33;0.82;;;;;;;;;;5088272;28;20150;-39
2022/10/06 02:04:29;;;;;;;1.20;0.70;;;;;;;;;;5088681;28;20044;-39
2022/10/06 02:06:55;;;;;;;1.08;0.90;;;;;;;;;;5088373;28;20074;-39
2022/10/06 02:09:22;;;;;;;1.30;0.70;;;;;;;;;;5087497;28;20085;-39
2022/10/06 02:11:48;;;;;;;2.40;0.77;;;;;;;;;;5088474;28;20050;-39
2022/10/06 02:14:16;;;;;;;1.40;0.80;;;;;;;;;;5087165;28;20039;-40
2022/10/06 02:16:42;;;;;;;0.70;0.70;;;;;;;;;;5088308;28;20030;-39
2022/10/06 02:19:08;;;;;;;1.52;0.82;;;;;;;;;;5087683;28;20046;-39
2022/10/06 02:21:34;;;;;;;1.17;0.70;;;;;;;;;;5088258;28;20530;-39
2022/10/06 02:24:00;;;;;;;0.90;0.80;;;;;;;;;;5088721;28;20107;-39
2022/10/06 02:26:26;;;;;;;1.55;0.70;;;;;;;;;;5088548;28;20032;-39
2022/10/06 02:28:52;;;;;;;0.90;0.70;;;;;;;;;;5087813;28;20036;-39
2022/10/06 02:31:18;;;;;;;0.90;0.73;;;;;;;;;;5088147;28;20029;-39
2022/10/06 02:33:45;;;;;;;0.65;0.65;;;;;;;;;;5086986;28;20035;-40
2022/10/06 02:36:15;;;;;;;1.00;0.90;;;;;;;;;;5088330;28;20028;-39
2022/10/06 02:38:41;;;;;;;1.00;0.90;;;;;;;;;;5087981;28;20045;-39
2022/10/06 02:41:09;;;;;;;1.10;0.82;;;;;;;;;;5087648;28;20119;-39
2022/10/06 02:43:35;;;;;;;1.33;0.80;;;;;;;;;;5088000;28;20024;-39
2022/10/06 02:46:09;;;;;;;1.17;0.75;;;;;;;;;;5088334;28;20024;-39
2022/10/06 02:48:35;;;;;;;0.88;0.70;;;;;;;;;;5087805;28;20093;-40
2022/10/06 02:51:03;;;;;;;1.50;1.02;;;;;;;;;;5088505;28;20039;-40
2022/10/06 02:53:29;;;;;;;0.90;0.75;;;;;;;;;;5088370;28;20028;-40
2022/10/06 02:56:04;;;;;;;1.10;0.98;;;;;;;;;;5087316;28;20110;-39
2022/10/06 02:58:30;;;;;;;1.00;0.90;;;;;;;;;;5087425;28;20028;-39
2022/10/06 03:01:07;;;;;;;1.30;0.88;;;;;;;;;;5089041;28;20733;-39
2022/10/06 03:03:34;;;;;;;0.95;0.65;;;;;;;;;;5090673;28;20012;-40
2022/10/06 03:06:01;;;;;;;1.42;1.00;;;;;;;;;;5091710;28;20020;-39
2022/10/06 03:08:27;;;;;;;1.13;0.80;;;;;;;;;;5091822;28;20031;-39
2022/10/06 03:10:58;;;;;;;0.73;0.73;;;;;;;;;;5090377;28;20910;-39
2022/10/06 03:13:24;;;;;;;1.10;0.70;;;;;;;;;;5091588;28;20032;-39
2022/10/06 03:15:50;;;;;;;0.88;0.70;;;;;;;;;;5091293;28;20476;-39
2022/10/06 03:18:16;;;;;;;0.68;0.60;;;;;;;;;;5091451;28;20032;-39
2022/10/06 03:20:42;;;;;;;1.05;0.70;;;;;;;;;;5091129;28;20032;-39
2022/10/06 03:23:08;;;;;;;1.27;0.63;;;;;;;;;;5091632;28;20076;-39
2022/10/06 03:25:34;;;;;;;2.15;0.73;;;;;;;;;;5090447;28;20028;-39
2022/10/06 03:28:00;;;;;;;2.45;0.70;;;;;;;;;;5091530;28;20460;-40
2022/10/06 03:30:26;;;;;;;1.00;0.90;;;;;;;;;;5091302;28;20040;-39
2022/10/06 03:32:52;;;;;;;0.75;0.65;;;;;;;;;;5091183;28;20035;-39
2022/10/06 03:35:18;;;;;;;0.60;0.60;;;;;;;;;;5091236;28;20028;-39
2022/10/06 03:37:44;;;;;;;0.60;0.60;;;;;;;;;;5091113;28;20483;-39
2022/10/06 03:40:10;;;;;;;1.05;0.75;;;;;;;;;;5090401;28;20031;-39
2022/10/06 03:42:37;;;;;;;4.22;1.30;;;;;;;;;;5090777;28;20054;-39
2022/10/06 03:45:03;;;;;;;0.82;0.63;;;;;;;;;;5090936;28;20035;-39
2022/10/06 03:47:29;;;;;;;0.90;0.70;;;;;;;;;;5090975;28;20035;-39
2022/10/06 03:49:56;;;;;;;1.15;0.93;;;;;;;;;;5090729;28;20040;-39
2022/10/06 03:52:22;;;;;;;0.70;0.70;;;;;;;;;;5090942;28;20024;-39
2022/10/06 03:54:48;;;;;;;1.00;0.70;;;;;;;;;;5087682;28;20038;-40
2022/10/06 03:57:14;;;;;;;1.25;0.60;;;;;;;;;;5090740;28;20396;-39
2022/10/06 03:59:40;;;;;;;1.38;0.80;;;;;;;;;;5090436;28;20051;-39
2022/10/06 04:02:06;;;;;;;1.25;0.80;;;;;;;;;;5090763;28;20020;-39
2022/10/06 04:04:32;;;;;;;0.82;0.73;;;;;;;;;;5090372;28;20107;-39
2022/10/06 04:06:58;;;;;;;1.40;0.90;;;;;;;;;;5090983;28;20484;-39
2022/10/06 04:09:24;;;;;;;0.80;0.60;;;;;;;;;;5090592;28;20490;-39
2022/10/06 04:11:51;;;;;;;0.80;0.80;;;;;;;;;;5090294;28;20499;-39
2022/10/06 04:14:17;;;;;;;0.70;0.70;;;;;;;;;;5090629;28;20747;-39
2022/10/06 04:16:45;;;;;;;1.00;0.90;;;;;;;;;;5090113;28;20031;-39
2022/10/06 04:19:12;;;;;;;1.30;0.80;;;;;;;;;;5090432;28;20032;-39
2022/10/06 04:21:39;;;;;;;1.88;1.08;;;;;;;;;;5088420;28;20019;-39
2022/10/06 04:24:06;;;;;;;1.70;0.80;;;;;;;;;;5090401;28;20028;-39
2022/10/06 04:26:34;;;;;;;1.50;0.82;;;;;;;;;;5090450;28;20048;-39
2022/10/06 04:29:00;;;;;;;0.80;0.80;;;;;;;;;;5090228;28;20036;-39
2022/10/06 04:31:28;;;;;;;0.95;0.70;;;;;;;;;;5090135;28;20024;-39
2022/10/06 04:33:55;;;;;;;1.80;0.80;;;;;;;;;;5090041;28;20133;-39
2022/10/06 04:36:23;;;;;;;1.92;0.80;;;;;;;;;;5089325;28;20567;-39
2022/10/06 04:38:49;;;;;;;0.82;0.73;;;;;;;;;;5089731;28;20028;-39
2022/10/06 04:41:16;;;;;;;1.30;0.77;;;;;;;;;;5089913;28;20020;-40
2022/10/06 04:43:45;;;;;;;2.80;0.88;;;;;;;;;;5089790;28;20035;-39
2022/10/06 04:46:11;;;;;;;2.35;0.77;;;;;;;;;;5089739;28;20016;-39
2022/10/06 04:48:37;;;;;;;1.42;0.80;;;;;;;;;;5088927;28;20650;-39
2022/10/06 04:51:04;;;;;;;1.10;0.98;;;;;;;;;;5089624;28;20024;-39
2022/10/06 04:53:30;;;;;;;1.98;0.60;;;;;;;;;;5090145;28;20032;-39
2022/10/06 04:56:00;;;;;;;1.00;0.90;;;;;;;;;;5089140;28;20023;-39
2022/10/06 04:58:29;;;;;;;1.13;0.70;;;;;;;;;;5089632;28;20039;-40
2022/10/06 05:00:55;;;;;;;0.80;0.80;;;;;;;;;;5089171;28;20028;-39
2022/10/06 05:03:22;;;;;;;0.70;0.70;;;;;;;;;;5089009;28;20077;-39
2022/10/06 05:05:48;;;;;;;0.90;0.70;;;;;;;;;;5089187;28;20126;-39
2022/10/06 05:08:14;;;;;;;0.70;0.70;;;;;;;;;;5089644;28;20417;-39
2022/10/06 05:10:40;;;;;;;0.70;0.70;;;;;;;;;;5089081;28;20407;-40
2022/10/06 05:13:10;;;;;;;0.75;0.75;;;;;;;;;;5089376;28;20085;-39
2022/10/06 05:15:36;;;;;;;0.75;0.63;;;;;;;;;;5088840;28;20020;-39
2022/10/06 05:18:03;;;;;;;0.77;0.70;;;;;;;;;;5088352;28;20028;-39
2022/10/06 05:20:29;;;;;;;0.98;0.63;;;;;;;;;;5089499;28;20639;-39
2022/10/06 05:22:55;;;;;;;0.73;0.70;;;;;;;;;;5088584;28;20459;-39
2022/10/06 05:25:21;;;;;;;1.00;0.73;;;;;;;;;;5088961;28;20016;-39
2022/10/06 05:27:47;;;;;;;0.80;0.80;;;;;;;;;;5088846;28;20047;-40
2022/10/06 05:30:13;;;;;;;1.33;0.80;;;;;;;;;;5088985;28;20063;-39
2022/10/06 05:32:39;;;;;;;1.35;0.80;;;;;;;;;;5088110;28;20032;-39
2022/10/06 05:35:06;;;;;;;1.13;0.98;;;;;;;;;;5088964;28;20526;-39
2022/10/06 05:37:32;;;;;;;3.53;1.73;;;;;;;;;;5077891;28;20036;-39
2022/10/06 05:39:58;;;;;;;2.60;1.48;;;;;;;;;;5085959;28;20028;-39
2022/10/06 05:42:24;;;;;;;2.60;1.58;;;;;;;;;;5085353;28;20030;-39
2022/10/06 05:44:50;;;;;;;2.53;1.60;;;;;;;;;;5067980;28;20048;-39
2022/10/06 05:47:16;;;;;;;1.73;1.20;;;;;;;;;;5080067;28;20032;-39
2022/10/06 05:49:42;;;;;;;1.63;1.10;;;;;;;;;;5068319;28;20105;-39
2022/10/06 05:52:08;;;;;;;1.60;1.17;;;;;;;;;;5068511;28;20032;-39
2022/10/06 05:54:34;;;;;;;1.42;1.10;;;;;;;;;;5071680;28;20498;-39
2022/10/06 05:57:00;;;;;;;1.45;0.90;;;;;;;;;;5088692;28;20381;-39
2022/10/06 05:59:26;;;;;;;1.05;0.95;;;;;;;;;;5078725;28;20040;-39
2022/10/06 06:01:52;;;;;;;2.50;1.20;;;;;;;;;;5076785;28;20113;-39
2022/10/06 06:04:19;;;;;;;0.60;0.60;;;;;;;;;;5087507;28;20024;-39
2022/10/06 06:06:47;;;;;;;1.33;0.80;;;;;;;;;;5086721;28;20032;-39
2022/10/06 06:09:16;;;;;;;2.17;0.95;;;;;;;;;;5088536;28;20059;-39
2022/10/06 06:11:43;;;;;;;1.27;0.82;;;;;;;;;;5076365;28;20032;-39
2022/10/06 06:14:10;;;;;;;1.50;0.82;;;;;;;;;;5068353;28;20032;-39
2022/10/06 06:16:37;;;;;;;1.45;0.80;;;;;;;;;;5078958;28;20406;-39
2022/10/06 06:19:04;;;;;;;2.85;0.88;;;;;;;;;;5088382;28;20110;-39
2022/10/06 06:21:30;;;;;;;0.98;0.88;;;;;;;;;;5087877;28;20064;-39
2022/10/06 06:23:56;;;;;;;0.80;0.80;;;;;;;;;;5083500;28;20456;-39
2022/10/06 06:26:24;;;;;;;0.60;0.60;;;;;;;;;;5075333;28;20062;-39
2022/10/06 06:28:51;;;;;;;0.73;0.73;;;;;;;;;;5087963;28;20356;-39
2022/10/06 06:31:20;;;;;;;1.00;0.90;;;;;;;;;;5085756;28;20036;-39
2022/10/06 06:33:46;;;;;;;1.10;0.90;;;;;;;;;;5087908;28;20555;-39
2022/10/06 06:36:13;;;;;;;2.30;1.10;;;;;;;;;;5090725;28;20032;-39
2022/10/06 06:38:40;;;;;;;1.10;0.90;;;;;;;;;;5084767;28;20059;-39
2022/10/06 06:41:12;;;;;;;0.90;0.85;;;;;;;;;;5092481;28;20040;-39
2022/10/06 06:43:38;;;;;;;1.92;1.10;;;;;;;;;;5087826;28;20039;-39
2022/10/06 06:46:05;;;;;;;1.48;0.80;;;;;;;;;;5091502;28;20085;-39
2022/10/06 06:48:31;;;;;;;0.93;0.80;;;;;;;;;;5089319;28;20028;-39
2022/10/06 06:50:57;;;;;;;1.00;0.80;;;;;;;;;;5084828;28;20089;-39
2022/10/06 06:53:23;;;;;;;1.15;0.82;;;;;;;;;;5090687;28;20036;-39
2022/10/06 06:55:50;;;;;;;0.73;0.73;;;;;;;;;;5090733;28;20031;-39
2022/10/06 06:58:17;;;;;;;1.20;1.00;;;;;;;;;;5091520;28;20032;-39
2022/10/06 07:00:43;;;;;;;1.20;1.02;;;;;;;;;;5086911;28;20020;-39
2022/10/06 07:03:12;;;;;;;2.85;1.00;;;;;;;;;;5091357;28;20024;-39
2022/10/06 07:05:38;;;;;;;3.67;1.02;;;;;;;;;;5083709;28;20020;-39
2022/10/06 07:08:09;;;;;;;1.17;1.08;;;;;;;;;;5071752;28;20479;-40
2022/10/06 07:10:36;;;;;;;1.33;1.02;;;;;;;;;;5071136;28;20096;-39
2022/10/06 07:13:02;;;;;;;1.17;1.02;;;;;;;;;;5074840;28;20059;-39
2022/10/06 07:26:30;;;;;;;2.17;1.02;;;;;;;;;;5089897;28;20063;-39
2022/10/06 07:28:59;;;;;;;0.95;0.90;;;;;;;;;;5089853;28;20044;-39
2022/10/06 07:31:32;;;;;;;1.60;1.00;;;;;;;;;;5086693;28;20032;-39
2022/10/06 07:33:59;;;;;;;1.30;0.90;;;;;;;;;;5090081;28;20035;-39
2022/10/06 07:36:25;;;;;;;0.90;0.70;;;;;;;;;;5089909;28;20028;-39
2022/10/06 07:38:51;;;;;;;2.20;1.00;;;;;;;;;;5089682;28;20028;-39
2022/10/06 07:41:17;;;;;;;1.08;1.00;;;;;;;;;;5089418;28;20119;-39
2022/10/06 07:43:45;;;;;;;1.52;0.90;;;;;;;;;;5089393;28;20507;-39
2022/10/06 07:46:12;;;;;;;1.13;1.00;;;;;;;;;;5088672;28;20016;-39
2022/10/06 07:48:38;;;;;;;1.00;0.90;;;;;;;;;;5088440;28;20119;-39
2022/10/06 07:51:11;;;;;;;0.90;0.90;;;;;;;;;;5088988;28;20103;-39
2022/10/06 07:53:38;;;;;;;1.25;1.02;;;;;;;;;;5089229;28;20036;-39
2022/10/06 07:56:05;;;;;;;1.10;1.00;;;;;;;;;;5088699;28;20035;-40
2022/10/06 07:58:32;;;;;;;1.42;1.20;;;;;;;;;;5086332;28;20404;-40
2022/10/06 08:01:04;;;;;;;2.17;1.45;;;;;;;;;;5087769;28;20038;-39
2022/10/06 08:03:30;;;;;;;2.17;1.20;;;;;;;;;;5084183;28;20403;-39
2022/10/06 08:05:59;;;;;;;1.38;1.00;;;;;;;;;;5086752;28;20099;-39
2022/10/06 08:08:26;;;;;;;1.13;1.00;;;;;;;;;;5089734;28;20043;-40
2022/10/06 08:10:56;;;;;;;2.60;1.17;;;;;;;;;;5079753;28;20032;-40
2022/10/06 08:13:22;;;;;;;2.40;1.13;;;;;;;;;;5088627;28;20501;-40
2022/10/06 08:15:50;;;;;;;1.40;1.20;;;;;;;;;;5080746;28;20024;-40
2022/10/06 08:18:17;;;;;;;4.13;1.40;;;;;;;;;;5068877;28;20392;-40
2022/10/06 08:20:44;;;;;;;2.83;1.50;;;;;;;;;;5082393;28;20473;-40
2022/10/06 08:23:10;;;;;;;2.28;1.27;;;;;;;;;;5089422;28;20020;-40
2022/10/06 08:25:39;;;;;;;3.22;1.55;;;;;;;;;;5089078;28;20073;-40
2022/10/06 08:28:05;;;;;;;2.45;1.52;;;;;;;;;;5050461;28;1109039;-39
2022/10/06 08:30:33;;;;;;;1.63;1.23;;;;;;;;;;5090656;28;20052;-40
2022/10/06 08:32:59;;;;;;;1.92;1.02;;;;;;;;;;5090385;28;20028;-40
2022/10/06 08:35:25;;;;;;;3.45;1.10;;;;;;;;;;5090439;28;20028;-40
2022/10/06 08:37:52;;;;;;;1.25;0.88;;;;;;;;;;5089803;28;20383;-40
2022/10/06 08:40:19;;;;;;;2.67;1.10;;;;;;;;;;5088188;28;20072;-40
2022/10/06 08:42:51;;;;;;;2.47;0.90;;;;;;;;;;5077490;28;20032;-40
2022/10/06 08:45:18;;;;;;;2.50;1.20;;;;;;;;;;5085499;28;20521;-40
2022/10/06 08:47:50;;;;;;;1.55;1.20;;;;;;;;;;5087974;28;20028;-40
2022/10/06 08:50:16;;;;;;;1.77;1.20;;;;;;;;;;5088399;28;20020;-40
2022/10/06 08:52:45;;;;;;;1.50;1.00;;;;;;;;;;5087937;28;20078;-40
2022/10/06 08:55:23;;;;;;;1.15;0.82;;;;;;;;;;5088278;28;20021;-40
2022/10/06 08:58:04;;;;;;;1.48;0.93;;;;;;;;;;5086957;28;20028;-40
2022/10/06 09:00:32;;;;;;;0.95;0.85;;;;;;;;;;5088629;28;20024;-40
2022/10/06 09:03:00;;;;;;;1.33;1.15;;;;;;;;;;5088167;28;20444;-41
2022/10/06 09:05:28;;;;;;;0.93;0.82;;;;;;;;;;5088026;28;20016;-40
2022/10/06 09:08:03;;;;;;;1.25;0.85;;;;;;;;;;5087905;28;20151;-40
2022/10/06 09:10:38;;;;;;;1.02;0.95;;;;;;;;;;5088476;28;20055;-40
2022/10/06 09:13:27;;;;;;;0.73;0.73;;;;;;;;;;5087824;28;20038;-40
2022/10/06 09:15:56;;;;;;;1.70;0.95;;;;;;;;;;5081844;28;20147;-40
2022/10/06 09:18:29;;;;;;;0.88;0.80;;;;;;;;;;5087914;28;20024;-40
2022/10/06 09:20:57;;;;;;;0.70;0.70;;;;;;;;;;5087577;28;20035;-40
2022/10/06 09:26:11;;;;;;;1.48;0.85;;;;;;;;;;5088117;28;20085;-40
2022/10/06 09:28:37;;;;;;;0.93;0.77;;;;;;;;;;5087112;28;20059;-40
2022/10/06 09:31:03;;;;;;;1.40;0.70;;;;;;;;;;5087527;28;20027;-40
2022/10/06 09:33:33;;;;;;;0.70;0.70;;;;;;;;;;5087774;28;20048;-40
2022/10/06 09:36:07;;;;;;;0.93;0.75;;;;;;;;;;5087721;28;20066;-40
2022/10/06 09:38:46;;;;;;;0.98;0.80;;;;;;;;;;5087260;28;20031;-40
2022/10/06 09:41:12;;;;;;;1.33;0.73;;;;;;;;;;5087731;28;20445;-40
2022/10/06 09:43:39;;;;;;;0.70;0.60;;;;;;;;;;5087030;28;20052;-40
2022/10/06 09:46:20;;;;;;;0.50;0.50;;;;;;;;;;5087125;28;20050;-40
2022/10/06 09:48:47;;;;;;;0.57;0.57;;;;;;;;;;5087046;28;20027;-40
2022/10/06 09:51:14;;;;;;;0.73;0.60;;;;;;;;;;5087403;28;20024;-40
2022/10/06 09:53:44;;;;;;;1.30;0.80;;;;;;;;;;5086847;28;20085;-40
2022/10/06 09:56:18;;;;;;;0.43;0.43;;;;;;;;;;5087255;28;20499;-40
2022/10/06 09:58:57;;;;;;;0.52;0.52;;;;;;;;;;5087012;28;20078;-40
2022/10/06 10:01:25;;;;;;;1.23;0.90;;;;;;;;;;5087200;28;20036;-40
2022/10/06 10:04:02;;;;;;;2.45;0.60;;;;;;;;;;5086904;28;20401;-40
2022/10/06 10:06:33;;;;;;;1.60;0.80;;;;;;;;;;5087524;28;20027;-40
2022/10/06 10:09:18;;;;;;;1.00;0.80;;;;;;;;;;5087237;28;20020;-40
2022/10/06 10:14:36;;;;;;;1.50;0.90;;;;;;;;;;5087843;28;20504;-40
2022/10/06 10:17:17;;;;;;;1.17;0.80;;;;;;;;;;5087264;28;20070;-40
2022/10/06 10:19:46;;;;;;;0.60;0.60;;;;;;;;;;5086884;28;20039;-40
2022/10/06 10:22:34;;;;;;;1.40;0.68;;;;;;;;;;5086949;28;20016;-40
2022/10/06 10:25:14;;;;;;;1.48;0.98;;;;;;;;;;5087513;28;20017;-40
2022/10/06 10:27:50;;;;;;;1.98;0.93;;;;;;;;;;5084012;28;20097;-40
2022/10/06 10:30:18;;;;;;;1.23;0.82;;;;;;;;;;5072728;28;20027;-40
2022/10/06 10:32:44;;;;;;;1.10;1.00;;;;;;;;;;5084260;28;20024;-40
2022/10/06 10:35:29;;;;;;;1.05;0.75;;;;;;;;;;5080222;28;20043;-40
2022/10/06 10:38:07;;;;;;;1.13;0.90;;;;;;;;;;5084614;28;20040;-40
2022/10/06 10:40:34;;;;;;;1.30;1.20;;;;;;;;;;5087835;28;20047;-40
2022/10/06 10:43:04;;;;;;;1.10;0.70;;;;;;;;;;5079079;28;20036;-40
2022/10/06 10:45:32;;;;;;;1.85;1.00;;;;;;;;;;5068655;28;20369;-40
2022/10/06 10:47:59;;;;;;;1.42;1.00;;;;;;;;;;5086903;28;20028;-40
2022/10/06 10:50:27;;;;;;;2.10;0.95;;;;;;;;;;5068221;28;20036;-40
2022/10/06 10:53:01;;;;;;;0.73;0.73;;;;;;;;;;5080169;28;20028;-40
2022/10/06 10:55:27;;;;;;;1.10;1.00;;;;;;;;;;5078251;28;20034;-40
2022/10/06 10:57:55;;;;;;;1.52;0.95;;;;;;;;;;5068480;28;20594;-40
2022/10/06 11:00:24;;;;;;;1.08;0.80;;;;;;;;;;5087356;28;20043;-40
2022/10/06 11:02:53;;;;;;;0.80;0.80;;;;;;;;;;5087865;28;20020;-40
2022/10/06 11:05:38;;;;;;;1.30;0.90;;;;;;;;;;5087840;28;20441;-40
2022/10/06 11:08:24;;;;;;;1.13;0.90;;;;;;;;;;5067784;28;20095;-40
2022/10/06 11:10:54;;;;;;;0.88;0.70;;;;;;;;;;5076009;28;20027;-40
2022/10/06 11:13:20;;;;;;;0.70;0.70;;;;;;;;;;5080721;28;20029;-40
2022/10/06 11:15:52;;;;;;;2.00;1.27;;;;;;;;;;5067412;28;20097;-40
2022/10/06 11:18:31;;;;;;;0.98;0.93;;;;;;;;;;5076900;28;20036;-40
2022/10/06 11:21:00;;;;;;;1.58;1.20;;;;;;;;;;5083153;28;20101;-40
2022/10/06 11:23:48;;;;;;;1.10;1.00;;;;;;;;;;5087726;28;20430;-40
2022/10/06 11:26:14;;;;;;;1.42;0.93;;;;;;;;;;5071510;28;20025;-40
2022/10/06 11:28:46;;;;;;;1.77;1.00;;;;;;;;;;5079144;28;20055;-40
2022/10/06 11:31:18;;;;;;;1.40;1.00;;;;;;;;;;5091461;28;20024;-40
2022/10/06 11:33:44;;;;;;;1.45;1.08;;;;;;;;;;5090926;28;20034;-40
2022/10/06 11:36:19;;;;;;;0.90;0.80;;;;;;;;;;5087165;28;20029;-40
2022/10/06 11:38:49;;;;;;;0.80;0.80;;;;;;;;;;5070770;28;20032;-40
2022/10/06 11:41:22;;;;;;;3.25;1.00;;;;;;;;;;5087862;28;20131;-40
2022/10/06 11:43:54;;;;;;;0.90;0.90;;;;;;;;;;5087523;28;20099;-40
2022/10/06 11:46:39;;;;;;;1.25;1.10;;;;;;;;;;5078509;28;20503;-40
2022/10/06 11:49:23;;;;;;;0.90;0.80;;;;;;;;;;5085035;28;20036;-40
2022/10/06 11:51:50;;;;;;;1.60;1.17;;;;;;;;;;5078927;28;20016;-41
2022/10/06 11:54:34;;;;;;;1.35;1.10;;;;;;;;;;5082495;28;20513;-41
2022/10/06 11:57:00;;;;;;;1.45;1.00;;;;;;;;;;5082218;28;20028;-41
2022/10/06 11:59:27;;;;;;;1.63;1.15;;;;;;;;;;5073631;28;20032;-42
2022/10/06 12:01:54;;;;;;;1.20;1.10;;;;;;;;;;5078377;28;20574;-40
2022/10/06 12:04:20;;;;;;;1.08;0.98;;;;;;;;;;5084200;28;20028;-40
2022/10/06 12:06:46;;;;;;;1.85;1.00;;;;;;;;;;5076694;28;20024;-40
2022/10/06 12:09:25;;;;;;;1.05;0.95;;;;;;;;;;5080442;28;20074;-40
2022/10/06 12:11:52;;;;;;;1.05;0.85;;;;;;;;;;5077511;28;20065;-40
2022/10/06 12:14:37;;;;;;;1.30;1.00;;;;;;;;;;5087489;28;20036;-41
2022/10/06 12:17:11;;;;;;;1.23;0.63;;;;;;;;;;5083634;28;20422;-40
2022/10/06 12:19:46;;;;;;;0.60;0.60;;;;;;;;;;5078581;28;20036;-40
2022/10/06 12:22:21;;;;;;;1.15;0.70;;;;;;;;;;5087126;28;20507;-40
2022/10/06 12:24:58;;;;;;;1.40;0.88;;;;;;;;;;5067715;28;20047;-41
2022/10/06 12:27:26;;;;;;;0.70;0.70;;;;;;;;;;5080778;28;20081;-40
2022/10/06 12:30:04;;;;;;;0.88;0.68;;;;;;;;;;5087500;28;20032;-40
2022/10/06 12:32:49;;;;;;;0.80;0.77;;;;;;;;;;5084827;28;20020;-40
2022/10/06 12:35:35;;;;;;;1.15;1.00;;;;;;;;;;5086944;28;20036;-41
2022/10/06 12:38:05;;;;;;;0.82;0.82;;;;;;;;;;5085969;28;20040;-40
2022/10/06 12:40:53;;;;;;;0.80;0.80;;;;;;;;;;5083150;28;20064;-40
2022/10/06 12:43:22;;;;;;;2.00;1.20;;;;;;;;;;5080845;28;20034;-40
2022/10/06 12:45:56;;;;;;;1.98;1.00;;;;;;;;;;5072008;28;20108;-40
2022/10/06 12:48:26;;;;;;;1.95;1.00;;;;;;;;;;5087484;28;20463;-40
2022/10/06 12:51:11;;;;;;;1.63;1.30;;;;;;;;;;5070688;28;20082;-40
2022/10/06 12:53:41;;;;;;;1.48;1.00;;;;;;;;;;5083419;28;20038;-41
2022/10/06 12:56:14;;;;;;;1.13;1.00;;;;;;;;;;5086545;28;20036;-40
2022/10/06 12:58:41;;;;;;;1.55;1.20;;;;;;;;;;5082680;28;20107;-40
2022/10/06 13:01:09;;;;;;;0.88;0.88;;;;;;;;;;5070936;28;20035;-40
2022/10/06 13:03:36;;;;;;;1.02;0.93;;;;;;;;;;5083097;28;20035;-42
2022/10/06 13:06:04;;;;;;;0.98;0.82;;;;;;;;;;5085864;28;20503;-40
2022/10/06 13:08:32;;;;;;;0.90;0.90;;;;;;;;;;5083214;28;20028;-42
2022/10/06 13:11:11;;;;;;;1.45;1.05;;;;;;;;;;5083239;28;20506;-40
2022/10/06 13:13:37;;;;;;;1.75;1.00;;;;;;;;;;5085660;28;20032;-41
2022/10/06 13:16:03;;;;;;;1.20;0.88;;;;;;;;;;5085780;28;20036;-40
2022/10/06 13:18:31;;;;;;;2.80;0.90;;;;;;;;;;5083856;28;20407;-41
2022/10/06 13:20:59;;;;;;;1.80;0.80;;;;;;;;;;5087194;28;20028;-40
2022/10/06 13:23:36;;;;;;;0.80;0.70;;;;;;;;;;5084961;28;20020;-40
2022/10/06 13:26:04;;;;;;;0.70;0.70;;;;;;;;;;5086444;28;20441;-41
2022/10/06 13:28:33;;;;;;;0.90;0.70;;;;;;;;;;5084914;28;20040;-40
2022/10/06 13:31:00;;;;;;;0.70;0.70;;;;;;;;;;5084850;28;20035;-40
2022/10/06 13:33:32;;;;;;;0.60;0.60;;;;;;;;;;5085910;28;20039;-41
2022/10/06 13:35:58;;;;;;;1.60;0.90;;;;;;;;;;5086582;28;20040;-40
2022/10/06 13:38:25;;;;;;;0.85;0.85;;;;;;;;;;5085299;28;20074;-41
2022/10/06 13:41:06;;;;;;;0.80;0.65;;;;;;;;;;5085731;28;20068;-40
2022/10/06 13:43:37;;;;;;;0.75;0.70;;;;;;;;;;5084948;28;20028;-40
2022/10/06 13:46:06;;;;;;;0.65;0.63;;;;;;;;;;5086177;28;20020;-40
2022/10/06 13:48:32;;;;;;;0.60;0.60;;;;;;;;;;5085170;28;20092;-40
2022/10/06 13:50:58;;;;;;;1.20;0.70;;;;;;;;;;5086615;28;20512;-40
2022/10/06 13:53:28;;;;;;;0.90;0.70;;;;;;;;;;5085608;28;20165;-40
2022/10/06 13:55:54;;;;;;;0.95;0.65;;;;;;;;;;5086082;28;20116;-40
2022/10/06 13:58:25;;;;;;;1.50;0.80;;;;;;;;;;5084747;28;20028;-40
2022/10/06 14:00:59;;;;;;;1.10;0.90;;;;;;;;;;5083968;28;20065;-40
2022/10/06 14:03:34;;;;;;;0.57;0.57;;;;;;;;;;5069662;28;20170;-41
2022/10/06 14:06:05;;;;;;;1.00;0.60;;;;;;;;;;5070683;28;20027;-41
2022/10/06 14:08:32;;;;;;;1.52;0.85;;;;;;;;;;5079492;28;20035;-40
2022/10/06 14:11:03;;;;;;;1.38;0.88;;;;;;;;;;5085336;28;20067;-41
2022/10/06 14:13:41;;;;;;;1.63;0.85;;;;;;;;;;5086010;28;20059;-41
2022/10/06 14:16:09;;;;;;;2.47;1.00;;;;;;;;;;5085231;28;20020;-42
2022/10/06 14:18:40;;;;;;;1.52;0.90;;;;;;;;;;5085235;28;20115;-41
2022/10/06 14:21:35;;;;;;;1.40;1.00;;;;;;;;;;5085081;28;20474;-41
2022/10/06 14:24:03;;;;;;;1.80;1.08;;;;;;;;;;5080479;28;20049;-41
2022/10/06 14:26:30;;;;;;;1.08;0.93;;;;;;;;;;5085096;28;20021;-41
2022/10/06 14:28:57;;;;;;;0.77;0.77;;;;;;;;;;5084992;28;20519;-40
2022/10/06 14:31:25;;;;;;;1.55;1.05;;;;;;;;;;5085234;28;20034;-40
2022/10/06 14:33:52;;;;;;;1.10;1.00;;;;;;;;;;5085009;28;20032;-41
2022/10/06 14:36:24;;;;;;;0.82;0.82;;;;;;;;;;5084935;28;20039;-40
2022/10/06 14:38:50;;;;;;;4.00;1.10;;;;;;;;;;5084882;28;20089;-40
2022/10/06 14:41:18;;;;;;;1.77;0.90;;;;;;;;;;5085030;28;20023;-41
2022/10/06 14:43:46;;;;;;;1.50;0.90;;;;;;;;;;5084652;28;20025;-40
2022/10/06 14:46:13;;;;;;;0.85;0.80;;;;;;;;;;5085607;28;20413;-40
2022/10/06 14:48:39;;;;;;;1.85;0.95;;;;;;;;;;5085428;28;20110;-42
2022/10/06 14:51:05;;;;;;;0.93;0.80;;;;;;;;;;5084936;28;20680;-42
2022/10/06 14:53:31;;;;;;;1.17;0.88;;;;;;;;;;5079037;28;20037;-40
2022/10/06 14:56:04;;;;;;;1.40;1.15;;;;;;;;;;5064738;28;20076;-42
2022/10/06 14:58:31;;;;;;;1.58;0.85;;;;;;;;;;5068595;28;20028;-43
2022/10/06 15:01:04;;;;;;;2.05;0.95;;;;;;;;;;5074711;28;20092;-41
2022/10/06 15:03:30;;;;;;;2.55;0.90;;;;;;;;;;5077564;28;20036;-40
2022/10/06 15:08:59;;;;;;;1.38;0.88;;;;;;;;;;5088683;28;20043;-41
2022/10/06 15:11:26;;;;;;;1.33;0.82;;;;;;;;;;5090061;28;20028;-41
2022/10/06 15:13:53;;;;;;;2.47;1.30;;;;;;;;;;5089323;28;20822;-41